createdAt,value
2023-04-05T00:01:01.477Z,-0.27
2023-04-05T00:03:29.280Z,-0.30
2023-04-05T00:05:57.139Z,-0.34
2023-04-05T00:08:26.737Z,-0.37
2023-04-05T00:10:54.681Z,-0.39
2023-04-05T00:13:22.835Z,-0.43
2023-04-05T00:15:52.163Z,-0.47
2023-04-05T00:18:23.682Z,-0.48
2023-04-05T00:20:51.929Z,-0.52
2023-04-05T00:23:21.284Z,-0.52
2023-04-05T00:25:49.554Z,-0.60
2023-04-05T00:28:17.252Z,-0.55
2023-04-05T00:30:45.020Z,-0.56
2023-04-05T00:33:14.633Z,-0.57
2023-04-05T00:35:42.445Z,-0.59
2023-04-05T00:38:10.331Z,-0.60
2023-04-05T00:40:38.030Z,-0.63
2023-04-05T00:43:05.881Z,-0.66
2023-04-05T00:45:33.642Z,-0.68
2023-04-05T00:48:01.903Z,-0.72
2023-04-05T00:50:31.569Z,-0.75
2023-04-05T00:52:59.729Z,-0.79
2023-04-05T00:55:28.506Z,-0.79
2023-04-05T00:57:56.797Z,-0.82
2023-04-05T01:00:26.021Z,-0.82
2023-04-05T01:03:01.745Z,-0.85
2023-04-05T01:05:39.401Z,-0.85
2023-04-05T01:08:17.340Z,-0.88
2023-04-05T01:10:52.366Z,-0.90
2023-04-05T01:13:20.413Z,-0.93
2023-04-05T01:15:48.166Z,-0.96
2023-04-05T01:18:15.961Z,-0.99
2023-04-05T01:20:53.740Z,-1.00
2023-04-05T01:23:38.955Z,-1.02
2023-04-05T01:26:47.464Z,-1.02
2023-04-05T01:29:48.717Z,-1.04
2023-04-05T01:32:25.767Z,-1.06
2023-04-05T01:35:00.320Z,-1.07
2023-04-05T01:37:33.731Z,-1.10
2023-04-05T01:40:02.213Z,-1.11
2023-04-05T01:42:29.874Z,-1.12
2023-04-05T01:45:00.745Z,-1.14
2023-04-05T01:47:28.639Z,-1.16
2023-04-05T01:49:56.502Z,-1.18
2023-04-05T01:52:26.916Z,-1.19
2023-04-05T01:54:54.632Z,-1.21
2023-04-05T01:57:22.348Z,-1.23
2023-04-05T01:59:50.113Z,-1.24
2023-04-05T02:02:19.227Z,-1.26
2023-04-05T02:04:46.924Z,-1.27
2023-04-05T02:07:14.720Z,-1.27
2023-04-05T02:09:42.458Z,-1.31
2023-04-05T02:12:10.471Z,-1.29
2023-04-05T02:14:38.982Z,-1.29
2023-04-05T02:17:06.787Z,-1.29
2023-04-05T02:19:40.643Z,-1.31
2023-04-05T02:22:08.842Z,-1.32
2023-04-05T02:24:36.728Z,-1.32
2023-04-05T02:27:05.550Z,-1.34
2023-04-05T02:29:33.272Z,-1.35
2023-04-05T02:32:01.218Z,-1.35
2023-04-05T02:34:29.414Z,-1.39
2023-04-05T02:37:01.785Z,-1.40
2023-04-05T02:39:30.384Z,-1.42
2023-04-05T02:41:59.036Z,-1.44
2023-04-05T02:44:26.927Z,-1.47
2023-04-05T02:46:55.085Z,-1.47
2023-04-05T02:49:28.419Z,-1.46
2023-04-05T02:51:59.751Z,-1.46
2023-04-05T02:54:27.575Z,-1.48
2023-04-05T02:57:02.325Z,-1.51
2023-04-05T02:59:36.620Z,-1.52
2023-04-05T03:02:05.577Z,-1.56
2023-04-05T03:04:34.811Z,-1.59
2023-04-05T03:07:05.933Z,-1.61
2023-04-05T03:09:39.178Z,-1.64
2023-04-05T03:12:10.053Z,-1.67
2023-04-05T03:14:41.549Z,-1.67
2023-04-05T03:17:12.020Z,-1.68
2023-04-05T03:19:43.402Z,-1.69
2023-04-05T03:22:22.841Z,-1.69
2023-04-05T03:24:52.387Z,-1.68
2023-04-05T03:27:21.870Z,-1.68
2023-04-05T03:30:16.209Z,-1.68
2023-04-05T03:33:02.994Z,-1.70
2023-04-05T03:35:46.376Z,-1.71
2023-04-05T03:38:16.269Z,-1.71
2023-04-05T03:40:56.858Z,-1.73
2023-04-05T03:43:25.690Z,-1.74
2023-04-05T03:45:53.450Z,-1.76
2023-04-05T03:48:21.775Z,-1.78
2023-04-05T03:50:51.035Z,-1.81
2023-04-05T03:53:21.050Z,-1.84
2023-04-05T03:55:55.626Z,-1.86
2023-04-05T03:58:37.678Z,-1.88
2023-04-05T04:01:06.697Z,-1.91
2023-04-05T04:03:37.227Z,-1.92
2023-04-05T04:06:05.535Z,-1.91
2023-04-05T04:08:34.836Z,-1.94
2023-04-05T04:11:02.569Z,-1.96
2023-04-05T04:13:34.600Z,-1.96
2023-04-05T04:16:08.316Z,-1.95
2023-04-05T04:18:45.946Z,-1.96
2023-04-05T04:21:39.696Z,-1.97
2023-04-05T04:24:26.622Z,-1.98
2023-04-05T04:27:30.216Z,-1.99
2023-04-05T04:30:16.517Z,-2.03
2023-04-05T04:33:06.660Z,-2.05
2023-04-05T04:35:54.965Z,-2.08
2023-04-05T04:38:42.859Z,-2.08
2023-04-05T04:41:12.926Z,-2.09
2023-04-05T04:43:49.653Z,-2.12
2023-04-05T04:46:30.722Z,-2.11
2023-04-05T04:49:10.885Z,-2.12
2023-04-05T04:51:39.182Z,-2.13
2023-04-05T04:54:07.324Z,-2.11
2023-04-05T04:56:36.420Z,-2.09
2023-04-05T04:59:04.122Z,-2.09
2023-04-05T05:01:34.115Z,-2.06
2023-04-05T05:04:04.492Z,-2.03
2023-04-05T05:06:36.124Z,-2.02
2023-04-05T05:09:04.078Z,-2.00
2023-04-05T05:11:36.525Z,-1.96
2023-04-05T05:14:07.685Z,-1.93
2023-04-05T05:16:35.848Z,-1.90
2023-04-05T05:19:03.664Z,-1.84
2023-04-05T05:21:40.800Z,-1.79
2023-04-05T05:24:10.094Z,-1.76
2023-04-05T05:26:39.204Z,-1.69
2023-04-05T05:29:06.917Z,-1.65
2023-04-05T05:31:39.277Z,-1.60
2023-04-05T05:34:07.342Z,-1.52
2023-04-05T05:36:36.072Z,-1.48
2023-04-05T05:39:05.119Z,-1.43
2023-04-05T05:41:32.857Z,-1.38
2023-04-05T05:44:01.983Z,-1.33
2023-04-05T05:46:29.883Z,-1.28
2023-04-05T05:48:57.685Z,-1.22
2023-04-05T05:51:25.473Z,-1.17
2023-04-05T05:53:53.180Z,-1.09
2023-04-05T05:56:20.949Z,-1.01
2023-04-05T05:58:48.724Z,-0.93
2023-04-05T06:01:17.836Z,-0.87
2023-04-05T06:03:46.083Z,-0.79
2023-04-05T06:06:13.874Z,-0.69
2023-04-05T06:08:41.722Z,-0.62
2023-04-05T06:11:17.398Z,-0.52
2023-04-05T06:13:45.362Z,-0.43
2023-04-05T06:16:13.171Z,-0.34
2023-04-05T06:18:42.919Z,-0.27
2023-04-05T06:21:10.782Z,-0.19
2023-04-05T06:23:39.256Z,-0.10
2023-04-05T06:26:07.046Z,-0.03
2023-04-05T06:28:34.962Z,0.06
2023-04-05T06:31:02.701Z,0.14
2023-04-05T06:33:30.557Z,0.20
2023-04-05T06:35:59.661Z,0.28
2023-04-05T06:38:27.346Z,0.37
2023-04-05T06:40:55.078Z,0.45
2023-04-05T06:43:22.793Z,0.54
2023-04-05T06:45:50.578Z,0.61
2023-04-05T06:48:18.373Z,0.70
2023-04-05T06:50:46.158Z,0.77
2023-04-05T06:53:18.232Z,0.83
2023-04-05T06:55:50.425Z,0.91
2023-04-05T06:58:18.153Z,1.00
2023-04-05T07:00:46.162Z,1.10
2023-04-05T07:03:14.002Z,1.20
2023-04-05T07:05:42.030Z,1.30
2023-04-05T07:08:09.752Z,1.40
2023-04-05T07:10:41.536Z,1.51
2023-04-05T07:13:09.349Z,1.60
2023-04-05T07:15:37.082Z,1.73
2023-04-05T07:18:05.033Z,1.84
2023-04-05T07:20:32.751Z,1.92
2023-04-05T07:23:00.636Z,2.02
2023-04-05T07:25:28.381Z,2.13
2023-04-05T07:27:57.480Z,2.22
2023-04-05T07:30:26.445Z,2.33
2023-04-05T07:32:54.376Z,2.44
2023-04-05T07:35:22.157Z,2.56
2023-04-05T07:37:49.889Z,2.63
2023-04-05T07:40:17.667Z,2.71
2023-04-05T07:42:45.490Z,2.77
2023-04-05T07:45:14.605Z,2.85
2023-04-05T07:47:42.403Z,2.92
2023-04-05T07:50:14.786Z,2.99
2023-04-05T07:52:43.060Z,3.07
2023-04-05T07:55:11.406Z,3.14
2023-04-05T07:57:39.182Z,3.22
2023-04-05T08:00:12.139Z,3.31
2023-04-05T08:02:44.930Z,3.40
2023-04-05T08:05:13.366Z,3.49
2023-04-05T08:07:41.505Z,3.58
2023-04-05T08:10:09.722Z,3.67
2023-04-05T08:12:39.041Z,3.75
2023-04-05T08:15:07.861Z,3.86
2023-04-05T08:17:35.670Z,3.96
2023-04-05T08:20:05.526Z,4.06
2023-04-05T08:22:33.263Z,4.14
2023-04-05T08:25:01.053Z,4.25
2023-04-05T08:27:28.841Z,4.36
2023-04-05T08:29:56.605Z,4.45
2023-04-05T08:32:24.345Z,4.56
2023-04-05T08:34:52.027Z,4.66
2023-04-05T08:37:21.130Z,4.77
2023-04-05T08:39:48.856Z,4.87
2023-04-05T08:42:18.647Z,4.98
2023-04-05T08:44:46.876Z,5.05
2023-04-05T08:47:20.652Z,5.15
2023-04-05T08:49:49.093Z,5.26
2023-04-05T08:52:17.343Z,5.38
2023-04-05T08:54:48.050Z,5.50
2023-04-05T08:57:18.295Z,5.58
2023-04-05T08:59:47.894Z,5.68
2023-04-05T09:02:18.710Z,5.74
2023-04-05T09:04:49.377Z,5.86
2023-04-05T09:07:18.535Z,5.96
2023-04-05T09:09:53.392Z,6.06
2023-04-05T09:12:22.734Z,6.14
2023-04-05T09:14:51.498Z,6.21
2023-04-05T09:17:20.031Z,6.32
2023-04-05T09:19:50.096Z,6.37
2023-04-05T09:22:19.415Z,6.49
2023-04-05T09:24:48.634Z,6.57
2023-04-05T09:27:21.487Z,6.66
2023-04-05T09:29:55.433Z,6.71
2023-04-05T09:32:28.285Z,6.76
2023-04-05T09:34:56.213Z,6.77
2023-04-05T09:37:27.490Z,6.77
2023-04-05T09:40:04.376Z,6.84
2023-04-05T09:42:44.342Z,6.91
2023-04-05T09:45:12.655Z,6.96
2023-04-05T09:47:56.406Z,7.01
2023-04-05T09:50:24.549Z,7.06
2023-04-05T09:53:07.671Z,7.12
2023-04-05T09:55:37.513Z,7.17
2023-04-05T09:58:05.428Z,7.24
2023-04-05T10:00:34.199Z,7.27
2023-04-05T10:03:02.024Z,7.33
2023-04-05T10:05:30.557Z,7.29
2023-04-05T10:07:58.837Z,7.33
2023-04-05T10:10:26.872Z,7.34
2023-04-05T10:12:56.453Z,7.34
2023-04-05T10:15:28.026Z,7.36
2023-04-05T10:18:04.562Z,7.45
2023-04-05T10:20:36.004Z,7.48
2023-04-05T10:23:09.176Z,7.57
2023-04-05T10:25:50.405Z,7.62
2023-04-05T10:28:31.468Z,7.69
2023-04-05T10:31:06.691Z,7.74
2023-04-05T10:33:42.848Z,7.71
2023-04-05T10:36:18.518Z,7.75
2023-04-05T10:39:01.901Z,7.80
2023-04-05T10:41:35.153Z,7.84
2023-04-05T10:44:14.932Z,7.82
2023-04-05T10:46:53.924Z,7.81
2023-04-05T10:49:24.190Z,7.84
2023-04-05T10:51:52.227Z,7.79
2023-04-05T10:54:21.621Z,7.82
2023-04-05T10:56:49.944Z,7.88
2023-04-05T10:59:19.575Z,7.94
2023-04-05T11:01:48.474Z,7.98
2023-04-05T11:04:16.820Z,8.05
2023-04-05T11:06:47.865Z,8.01
2023-04-05T11:09:17.243Z,8.10
2023-04-05T11:11:46.559Z,8.07
2023-04-05T11:14:23.398Z,8.17
2023-04-05T11:16:55.403Z,8.25
2023-04-05T11:19:49.684Z,8.28
2023-04-05T11:22:27.480Z,8.24
2023-04-05T11:24:58.123Z,8.28
2023-04-05T11:27:28.059Z,8.27
2023-04-05T11:29:58.691Z,8.31
2023-04-05T11:32:42.742Z,8.34
2023-04-05T11:35:14.837Z,8.34
2023-04-05T11:38:08.953Z,8.25
2023-04-05T11:40:40.357Z,8.31
2023-04-05T11:43:10.196Z,8.29
2023-04-05T11:45:41.819Z,8.35
2023-04-05T11:48:11.041Z,8.38
2023-04-05T11:50:41.820Z,8.44
2023-04-05T11:53:14.006Z,8.48
2023-04-05T11:55:44.458Z,8.48
2023-04-05T11:58:17.004Z,8.46
2023-04-05T12:00:47.768Z,8.50
2023-04-05T12:03:16.444Z,8.53
2023-04-05T12:05:51.237Z,8.58
2023-04-05T12:08:19.349Z,8.60
2023-04-05T12:10:55.000Z,8.67
2023-04-05T12:13:30.078Z,8.71
2023-04-05T12:16:01.529Z,8.68
2023-04-05T12:18:31.252Z,8.74
2023-04-05T12:20:59.782Z,8.75
2023-04-05T12:23:27.940Z,8.72
2023-04-05T12:25:57.599Z,8.78
2023-04-05T12:28:25.768Z,8.82
2023-04-05T12:30:55.113Z,8.85
2023-04-05T12:33:32.186Z,8.81
2023-04-05T12:36:00.571Z,8.79
2023-04-05T12:38:30.395Z,8.75
2023-04-05T12:41:01.635Z,8.80
2023-04-05T12:43:39.721Z,8.81
2023-04-05T12:46:10.481Z,8.84
2023-04-05T12:48:39.818Z,8.82
2023-04-05T12:51:16.026Z,8.65
2023-04-05T12:53:46.926Z,8.62
2023-04-05T12:56:16.229Z,8.61
2023-04-05T12:58:44.198Z,8.49
2023-04-05T13:01:12.797Z,8.34
2023-04-05T13:03:45.572Z,8.28
2023-04-05T13:06:14.623Z,8.26
2023-04-05T13:08:42.363Z,8.21
2023-04-05T13:11:10.170Z,8.21
2023-04-05T13:13:37.859Z,8.16
2023-04-05T13:16:05.964Z,8.18
2023-04-05T13:18:33.678Z,8.12
2023-04-05T13:21:07.573Z,8.21
2023-04-05T13:23:35.717Z,8.14
2023-04-05T13:26:03.964Z,8.14
2023-04-05T13:28:31.813Z,8.16
2023-04-05T13:30:59.875Z,8.12
2023-04-05T13:33:27.640Z,8.16
2023-04-05T13:35:55.355Z,8.28
2023-04-05T13:38:24.424Z,8.27
2023-04-05T13:40:52.061Z,8.30
2023-04-05T13:43:19.760Z,8.45
2023-04-05T13:45:47.438Z,8.58
2023-04-05T13:48:15.076Z,8.56
2023-04-05T13:50:42.944Z,8.44
2023-04-05T13:53:11.006Z,8.42
2023-04-05T13:55:40.319Z,8.38
2023-04-05T13:58:08.116Z,8.34
2023-04-05T14:00:35.867Z,8.30
2023-04-05T14:03:04.097Z,8.26
2023-04-05T14:05:32.003Z,8.38
2023-04-05T14:07:59.752Z,8.44
2023-04-05T14:10:27.467Z,8.48
2023-04-05T14:12:56.646Z,8.50
2023-04-05T14:15:24.457Z,8.59
2023-04-05T14:17:52.305Z,8.58
2023-04-05T14:20:20.398Z,8.69
2023-04-05T14:22:48.283Z,8.97
2023-04-05T14:25:16.961Z,9.16
2023-04-05T14:27:44.845Z,9.34
2023-04-05T14:30:15.456Z,9.48
2023-04-05T14:32:45.089Z,9.64
2023-04-05T14:35:12.949Z,9.83
2023-04-05T14:37:40.959Z,9.97
2023-04-05T14:40:09.443Z,9.97
2023-04-05T14:42:48.429Z,9.98
2023-04-05T14:45:19.161Z,10.02
2023-04-05T14:47:47.166Z,10.04
2023-04-05T14:50:15.256Z,10.06
2023-04-05T14:52:43.070Z,10.03
2023-04-05T14:55:12.411Z,9.95
2023-04-05T14:57:40.290Z,9.78
2023-04-05T15:00:09.664Z,9.76
2023-04-05T15:02:39.326Z,9.71
2023-04-05T15:05:08.868Z,9.68
2023-04-05T15:07:36.830Z,9.64
2023-04-05T15:10:05.392Z,9.59
2023-04-05T15:12:33.534Z,9.56
2023-04-05T15:15:02.188Z,9.52
2023-04-05T15:17:30.139Z,9.49
2023-04-05T15:19:59.422Z,9.41
2023-04-05T15:22:27.312Z,9.25
2023-04-05T15:24:56.505Z,9.16
2023-04-05T15:27:24.372Z,9.05
2023-04-05T15:29:52.164Z,9.03
2023-04-05T15:32:20.155Z,8.91
2023-04-05T15:34:47.989Z,8.85
2023-04-05T15:37:17.253Z,8.83
2023-04-05T15:39:45.089Z,8.79
2023-04-05T15:42:12.942Z,8.76
2023-04-05T15:44:42.972Z,8.64
2023-04-05T15:47:11.713Z,8.56
2023-04-05T15:49:39.610Z,8.55
2023-04-05T15:52:07.882Z,8.50
2023-04-05T15:54:37.344Z,8.49
2023-04-05T15:57:05.637Z,8.48
2023-04-05T15:59:33.556Z,8.42
2023-04-05T16:02:01.539Z,8.41
2023-04-05T16:04:30.474Z,8.33
2023-04-05T16:06:58.258Z,8.23
2023-04-05T16:09:26.124Z,8.15
2023-04-05T16:11:55.883Z,8.05
2023-04-05T16:14:23.900Z,7.99
2023-04-05T16:16:54.115Z,8.03
2023-04-05T16:19:23.446Z,8.04
2023-04-05T16:21:52.686Z,8.02
2023-04-05T16:24:21.139Z,7.98
2023-04-05T16:26:49.291Z,7.92
2023-04-05T16:29:18.568Z,7.86
2023-04-05T16:31:47.506Z,7.85
2023-04-05T16:34:15.663Z,7.84
2023-04-05T16:36:43.824Z,7.82
2023-04-05T16:39:11.661Z,7.79
2023-04-05T16:41:39.553Z,7.77
2023-04-05T16:44:07.414Z,7.73
2023-04-05T16:46:36.968Z,7.66
2023-04-05T16:49:05.287Z,7.60
2023-04-05T16:51:36.923Z,7.60
2023-04-05T16:54:05.236Z,7.59
2023-04-05T16:56:33.071Z,7.57
2023-04-05T16:59:01.248Z,7.53
2023-04-05T17:01:30.422Z,7.47
2023-04-05T17:04:00.083Z,7.39
2023-04-05T17:06:29.045Z,7.38
2023-04-05T17:08:56.929Z,7.36
2023-04-05T17:11:24.783Z,7.33
2023-04-05T17:13:52.654Z,7.31
2023-04-05T17:16:20.515Z,7.24
2023-04-05T17:18:48.416Z,7.21
2023-04-05T17:21:18.162Z,7.15
2023-04-05T17:23:46.108Z,7.10
2023-04-05T17:26:14.012Z,7.03
2023-04-05T17:28:41.906Z,6.95
2023-04-05T17:31:09.918Z,6.85
2023-04-05T17:33:37.861Z,6.75
2023-04-05T17:36:06.158Z,6.68
2023-04-05T17:38:35.433Z,6.60
2023-04-05T17:41:03.287Z,6.54
2023-04-05T17:43:31.222Z,6.48
2023-04-05T17:45:59.031Z,6.43
2023-04-05T17:48:27.181Z,6.36
2023-04-05T17:50:55.042Z,6.31
2023-04-05T17:53:22.903Z,6.20
2023-04-05T17:55:52.077Z,6.10
2023-04-05T17:58:20.242Z,5.99
2023-04-05T18:00:48.117Z,5.92
2023-04-05T18:03:17.906Z,5.84
2023-04-05T18:05:51.253Z,5.76
2023-04-05T18:08:19.181Z,5.66
2023-04-05T18:10:47.029Z,5.57
2023-04-05T18:13:16.559Z,5.46
2023-04-05T18:15:44.755Z,5.34
2023-04-05T18:18:12.870Z,5.24
2023-04-05T18:20:41.447Z,5.15
2023-04-05T18:23:09.272Z,5.02
2023-04-05T18:25:37.390Z,4.93
2023-04-05T18:28:19.421Z,4.83
2023-04-05T18:30:51.613Z,4.76
2023-04-05T18:33:19.754Z,4.71
2023-04-05T18:35:50.599Z,4.65
2023-04-05T18:38:18.588Z,4.56
2023-04-05T18:40:46.462Z,4.51
2023-04-05T18:43:14.937Z,4.43
2023-04-05T18:45:42.842Z,4.38
2023-04-05T18:48:12.461Z,4.33
2023-04-05T18:50:40.372Z,4.27
2023-04-05T18:53:09.306Z,4.22
2023-04-05T18:55:37.713Z,4.15
2023-04-05T18:58:05.559Z,4.07
2023-04-05T19:00:33.418Z,4.00
2023-04-05T19:03:01.767Z,3.92
2023-04-05T19:05:31.317Z,3.84
2023-04-05T19:07:59.243Z,3.77
2023-04-05T19:10:27.081Z,3.71
2023-04-05T19:12:54.966Z,3.65
2023-04-05T19:15:22.812Z,3.60
2023-04-05T19:17:50.736Z,3.54
2023-04-05T19:20:18.878Z,3.47
2023-04-05T19:22:48.139Z,3.38
2023-04-05T19:25:16.147Z,3.29
2023-04-05T19:27:44.097Z,3.24
2023-04-05T19:30:12.607Z,3.17
2023-04-05T19:32:40.525Z,3.11
2023-04-05T19:35:10.245Z,3.06
2023-04-05T19:37:38.478Z,3.00
2023-04-05T19:40:09.544Z,2.94
2023-04-05T19:42:37.428Z,2.89
2023-04-05T19:45:09.149Z,2.83
2023-04-05T19:47:49.407Z,2.79
2023-04-05T19:50:45.582Z,2.72
2023-04-05T19:53:32.540Z,2.66
2023-04-05T19:56:02.013Z,2.61
2023-04-05T19:58:30.435Z,2.55
2023-04-05T20:00:58.242Z,2.50
2023-04-05T20:03:30.609Z,2.44
2023-04-05T20:06:05.541Z,2.40
2023-04-05T20:08:35.533Z,2.32
2023-04-05T20:11:07.921Z,2.29
2023-04-05T20:13:46.251Z,2.23
2023-04-05T20:16:15.799Z,2.19
2023-04-05T20:18:46.365Z,2.15
2023-04-05T20:21:15.284Z,2.09
2023-04-05T20:23:43.956Z,2.07
2023-04-05T20:26:16.411Z,2.02
2023-04-05T20:28:53.417Z,1.98
2023-04-05T20:31:23.383Z,1.92
2023-04-05T20:33:54.474Z,1.89
2023-04-05T20:36:24.343Z,1.84
2023-04-05T20:38:52.151Z,1.80
2023-04-05T20:41:21.473Z,1.78
2023-04-05T20:43:49.398Z,1.74
2023-04-05T20:46:17.597Z,1.69
2023-04-05T20:48:46.736Z,1.63
2023-04-05T20:51:16.268Z,1.59
2023-04-05T20:53:44.153Z,1.55
2023-04-05T20:56:13.185Z,1.53
2023-04-05T20:58:42.470Z,1.49
2023-04-05T21:01:10.991Z,1.43
2023-04-05T21:03:42.495Z,1.39
2023-04-05T21:06:11.351Z,1.36
2023-04-05T21:08:40.915Z,1.33
2023-04-05T21:11:10.662Z,1.30
2023-04-05T21:13:39.020Z,1.26
2023-04-05T21:16:08.865Z,1.23
2023-04-05T21:18:37.195Z,1.19
2023-04-05T21:21:05.687Z,1.18
2023-04-05T21:23:34.389Z,1.14
2023-04-05T21:26:04.111Z,1.11
2023-04-05T21:28:32.136Z,1.10
2023-04-05T21:31:00.156Z,1.05
2023-04-05T21:33:29.525Z,1.01
2023-04-05T21:35:57.373Z,0.99
2023-04-05T21:38:25.372Z,0.96
2023-04-05T21:40:53.709Z,0.94
2023-04-05T21:43:21.597Z,0.90
2023-04-05T21:45:49.452Z,0.87
2023-04-05T21:48:17.321Z,0.84
2023-04-05T21:50:46.578Z,0.81
2023-04-05T21:53:14.581Z,0.75
2023-04-05T21:55:42.457Z,0.71
2023-04-05T21:58:10.378Z,0.68
2023-04-05T22:00:38.314Z,0.64
2023-04-05T22:03:06.322Z,0.64
2023-04-05T22:05:38.658Z,0.60
2023-04-05T22:08:09.130Z,0.56
2023-04-05T22:10:38.054Z,0.53
2023-04-05T22:13:06.010Z,0.52
2023-04-05T22:15:34.298Z,0.49
2023-04-05T22:18:02.616Z,0.47
2023-04-05T22:20:31.150Z,0.45
2023-04-05T22:22:58.955Z,0.40
2023-04-05T22:25:28.223Z,0.37
2023-04-05T22:28:00.033Z,0.35
2023-04-05T22:30:28.471Z,0.32
2023-04-05T22:32:56.651Z,0.30
2023-04-05T22:35:24.799Z,0.27
2023-04-05T22:37:52.658Z,0.24
2023-04-05T22:40:26.178Z,0.23
2023-04-05T22:42:55.580Z,0.21
2023-04-05T22:45:23.577Z,0.20
2023-04-05T22:47:51.598Z,0.17
2023-04-05T22:50:19.579Z,0.15
2023-04-05T22:52:47.485Z,0.13
2023-04-05T22:55:15.619Z,0.12
2023-04-05T22:57:43.432Z,0.08
2023-04-05T23:00:14.137Z,0.04
2023-04-05T23:02:42.083Z,0.02
2023-04-05T23:05:11.011Z,-0.01
2023-04-05T23:07:38.824Z,-0.04
2023-04-05T23:10:07.283Z,-0.09
2023-04-05T23:12:35.137Z,-0.12
2023-04-05T23:15:02.988Z,-0.14
2023-04-05T23:17:32.498Z,-0.18
2023-04-05T23:20:00.748Z,-0.18
2023-04-05T23:22:28.647Z,-0.22
2023-04-05T23:24:56.475Z,-0.23
2023-04-05T23:27:24.298Z,-0.27
2023-04-05T23:29:52.161Z,-0.28
2023-04-05T23:32:20.064Z,-0.31
2023-04-05T23:34:49.556Z,-0.33
2023-04-05T23:37:17.881Z,-0.35
2023-04-05T23:39:45.984Z,-0.38
2023-04-05T23:42:14.510Z,-0.40
2023-04-05T23:44:42.345Z,-0.43
2023-04-05T23:47:10.218Z,-0.41
2023-04-05T23:49:38.116Z,-0.43
2023-04-05T23:52:07.322Z,-0.44
2023-04-05T23:54:35.431Z,-0.43
2023-04-05T23:57:03.215Z,-0.44
2023-04-05T23:59:31.284Z,-0.44
